createdAt,value
2023-03-17T00:00:07.417Z,17.38
2023-03-17T00:00:26.010Z,17.73
2023-03-17T00:00:42.948Z,19.73
2023-03-17T00:01:03.560Z,18.23
2023-03-17T00:01:17.917Z,17.73
2023-03-17T00:01:30.770Z,15.02
2023-03-17T00:01:46.854Z,12.77
2023-03-17T00:01:59.522Z,16.48
2023-03-17T00:02:12.664Z,21.27
2023-03-17T00:02:27.088Z,22.73
2023-03-17T00:02:42.955Z,22.88
2023-03-17T00:02:55.238Z,21.98
2023-03-17T00:03:07.894Z,21.25
2023-03-17T00:03:23.919Z,20.80
2023-03-17T00:03:39.993Z,19.95
2023-03-17T00:03:53.041Z,17.38
2023-03-17T00:04:07.040Z,17.25
2023-03-17T00:04:20.227Z,19.05
2023-03-17T00:04:32.983Z,18.23
2023-03-17T00:04:45.979Z,18.77
2023-03-17T00:04:58.675Z,19.77
2023-03-17T00:05:26.810Z,20.95
2023-03-17T00:05:39.377Z,25.63
2023-03-17T00:05:53.665Z,23.92
2023-03-17T00:06:11.992Z,20.17
2023-03-17T00:06:29.455Z,20.05
2023-03-17T00:06:42.470Z,18.55
2023-03-17T00:06:56.018Z,18.77
2023-03-17T00:07:15.107Z,19.40
2023-03-17T00:07:27.692Z,17.63
2023-03-17T00:07:40.928Z,18.17
2023-03-17T00:07:54.772Z,18.80
2023-03-17T00:08:13.092Z,16.83
2023-03-17T00:08:28.398Z,15.98
2023-03-17T00:08:41.982Z,18.30
2023-03-17T00:08:54.817Z,18.73
2023-03-17T00:09:11.650Z,19.17
2023-03-17T00:09:24.530Z,18.00
2023-03-17T00:09:39.707Z,17.90
2023-03-17T00:09:53.345Z,17.60
2023-03-17T00:10:11.174Z,16.80
2023-03-17T00:10:26.104Z,24.27
2023-03-17T00:10:39.846Z,24.80
2023-03-17T00:10:53.553Z,19.23
2023-03-17T00:11:10.945Z,15.57
2023-03-17T00:11:26.043Z,16.58
2023-03-17T00:11:41.021Z,18.52
2023-03-17T00:11:56.829Z,18.10
2023-03-17T00:12:11.472Z,17.17
2023-03-17T00:12:27.639Z,18.75
2023-03-17T00:12:40.913Z,20.08
2023-03-17T00:12:54.824Z,20.17
2023-03-17T00:13:07.129Z,22.75
2023-03-17T00:13:19.630Z,20.30
2023-03-17T00:13:33.258Z,14.82
2023-03-17T00:13:46.039Z,17.00
2023-03-17T00:14:00.030Z,17.25
2023-03-17T00:14:15.216Z,16.65
2023-03-17T00:14:30.626Z,20.30
2023-03-17T00:14:46.176Z,22.77
2023-03-17T00:15:00.518Z,18.90
2023-03-17T00:15:13.239Z,19.63
2023-03-17T00:15:29.039Z,22.10
2023-03-17T00:15:52.932Z,20.75
2023-03-17T00:16:15.744Z,21.73
2023-03-17T00:16:30.124Z,18.88
2023-03-17T00:16:47.126Z,20.98
2023-03-17T00:17:02.526Z,23.10
2023-03-17T00:17:17.598Z,21.10
2023-03-17T00:17:31.428Z,20.05
2023-03-17T00:17:45.590Z,23.42
2023-03-17T00:17:58.480Z,23.30
2023-03-17T00:18:14.152Z,19.17
2023-03-17T00:18:28.709Z,18.20
2023-03-17T00:18:41.918Z,19.17
2023-03-17T00:18:55.928Z,24.48
2023-03-17T00:19:14.069Z,28.85
2023-03-17T00:19:30.695Z,25.38
2023-03-17T00:19:46.402Z,22.30
2023-03-17T00:20:05.650Z,19.48
2023-03-17T00:20:25.544Z,18.88
2023-03-17T00:20:38.935Z,21.38
2023-03-17T00:20:52.634Z,21.58
2023-03-17T00:21:15.833Z,22.33
2023-03-17T00:21:36.671Z,21.02
2023-03-17T00:21:50.528Z,18.88
2023-03-17T00:22:13.203Z,17.70
2023-03-17T00:22:25.812Z,22.58
2023-03-17T00:22:38.259Z,21.45
2023-03-17T00:22:51.883Z,20.80
2023-03-17T00:23:03.885Z,22.67
2023-03-17T00:23:21.642Z,21.85
2023-03-17T00:23:34.449Z,21.50
2023-03-17T00:23:50.191Z,23.54
2023-03-17T00:24:04.125Z,21.55
2023-03-17T00:24:19.874Z,18.50
2023-03-17T00:24:34.493Z,19.83
2023-03-17T00:24:51.179Z,19.98
2023-03-17T00:25:04.899Z,20.90
2023-03-17T00:25:29.785Z,22.90
2023-03-17T00:25:43.149Z,28.77
2023-03-17T00:25:57.446Z,25.08
2023-03-17T00:26:16.164Z,20.52
2023-03-17T00:26:32.733Z,18.42
2023-03-17T00:26:46.187Z,20.60
2023-03-17T00:27:03.897Z,21.88
2023-03-17T00:27:21.166Z,20.10
2023-03-17T00:27:34.492Z,21.38
2023-03-17T00:27:49.935Z,20.98
2023-03-17T00:28:04.835Z,21.92
2023-03-17T00:28:21.160Z,23.88
2023-03-17T00:28:34.816Z,26.35
2023-03-17T00:28:50.813Z,27.63
2023-03-17T00:29:04.136Z,22.15
2023-03-17T00:29:17.825Z,21.00
2023-03-17T00:29:33.097Z,24.58
2023-03-17T00:29:46.551Z,23.20
2023-03-17T00:30:01.985Z,21.17
2023-03-17T00:30:19.835Z,21.67
2023-03-17T00:30:35.607Z,25.70
2023-03-17T00:30:54.205Z,33.38
2023-03-17T00:31:16.618Z,30.80
2023-03-17T00:31:35.008Z,29.33
2023-03-17T00:31:48.646Z,29.15
2023-03-17T00:32:01.373Z,28.77
2023-03-17T00:32:18.960Z,29.85
2023-03-17T00:32:32.174Z,26.23
2023-03-17T00:32:48.222Z,23.45
2023-03-17T00:33:30.081Z,24.25
2023-03-17T00:33:43.502Z,22.50
2023-03-17T00:33:57.176Z,21.38
2023-03-17T00:34:17.717Z,21.30
2023-03-17T00:34:34.208Z,20.73
2023-03-17T00:34:49.713Z,22.10
2023-03-17T00:35:05.960Z,23.83
2023-03-17T00:35:25.050Z,26.80
2023-03-17T00:35:42.966Z,29.20
2023-03-17T00:35:57.342Z,26.60
2023-03-17T00:36:16.066Z,21.38
2023-03-17T00:36:33.545Z,20.05
2023-03-17T00:36:52.558Z,19.40
2023-03-17T00:37:11.999Z,18.02
2023-03-17T00:37:25.963Z,19.55
2023-03-17T00:37:38.788Z,20.85
2023-03-17T00:37:57.256Z,25.73
2023-03-17T00:38:15.620Z,25.33
2023-03-17T00:38:31.018Z,21.05
2023-03-17T00:38:44.285Z,17.75
2023-03-17T00:39:00.003Z,17.23
2023-03-17T00:39:25.936Z,19.55
2023-03-17T00:39:42.411Z,18.52
2023-03-17T00:39:55.969Z,18.90
2023-03-17T00:40:16.055Z,22.48
2023-03-17T00:40:31.239Z,21.45
2023-03-17T00:41:00.348Z,17.42
2023-03-17T00:41:14.576Z,15.84
2023-03-17T00:41:30.055Z,17.50
2023-03-17T00:42:03.789Z,23.25
2023-03-17T00:42:18.956Z,21.58
2023-03-17T00:42:31.493Z,21.73
2023-03-17T00:42:44.134Z,21.92
2023-03-17T00:43:00.315Z,21.67
2023-03-17T00:43:14.704Z,19.90
2023-03-17T00:43:30.400Z,20.55
2023-03-17T00:43:42.994Z,19.65
2023-03-17T00:43:55.914Z,19.00
2023-03-17T00:44:12.836Z,20.45
2023-03-17T00:44:26.986Z,24.50
2023-03-17T00:44:45.489Z,24.75
2023-03-17T00:44:57.957Z,21.77
2023-03-17T00:45:11.332Z,20.77
2023-03-17T00:45:26.063Z,20.88
2023-03-17T00:45:40.008Z,21.10
2023-03-17T00:45:52.740Z,19.65
2023-03-17T00:46:12.347Z,21.38
2023-03-17T00:46:27.215Z,19.23
2023-03-17T00:46:43.885Z,19.83
2023-03-17T00:46:59.206Z,25.90
2023-03-17T00:47:15.896Z,23.88
2023-03-17T00:47:30.035Z,19.25
2023-03-17T00:47:43.736Z,20.98
2023-03-17T00:47:56.513Z,19.38
2023-03-17T00:48:15.078Z,21.33
2023-03-17T00:48:30.198Z,23.45
2023-03-17T00:48:46.724Z,21.67
2023-03-17T00:48:59.485Z,22.15
2023-03-17T00:49:21.440Z,25.10
2023-03-17T00:49:37.846Z,32.67
2023-03-17T00:49:52.505Z,37.83
2023-03-17T00:50:17.342Z,39.75
2023-03-17T00:50:32.593Z,46.38
2023-03-17T00:50:49.468Z,46.75
2023-03-17T00:51:05.394Z,42.00
2023-03-17T00:51:19.829Z,46.47
2023-03-17T00:51:33.924Z,52.97
2023-03-17T00:51:47.758Z,49.90
2023-03-17T00:52:04.030Z,43.10
2023-03-17T00:52:17.237Z,43.10
2023-03-17T00:52:30.533Z,40.13
2023-03-17T00:52:45.155Z,41.00
2023-03-17T00:53:01.663Z,39.90
2023-03-17T00:53:21.502Z,38.50
2023-03-17T00:53:38.161Z,29.77
2023-03-17T00:53:52.718Z,30.75
2023-03-17T00:54:05.852Z,33.28
2023-03-17T00:54:19.089Z,31.80
2023-03-17T00:54:33.041Z,25.98
2023-03-17T00:54:46.051Z,26.17
2023-03-17T00:54:58.648Z,25.83
2023-03-17T00:55:17.511Z,26.05
2023-03-17T00:55:29.835Z,27.08
2023-03-17T00:55:43.687Z,27.02
2023-03-17T00:55:56.256Z,25.90
2023-03-17T00:56:13.048Z,22.90
2023-03-17T00:56:27.912Z,23.15
2023-03-17T00:56:42.336Z,27.40
2023-03-17T00:56:56.865Z,28.45
2023-03-17T00:57:11.430Z,24.52
2023-03-17T00:57:24.772Z,21.75
2023-03-17T00:57:39.940Z,21.42
2023-03-17T00:57:52.872Z,20.00
2023-03-17T00:58:13.191Z,23.23
2023-03-17T00:58:33.315Z,32.50
2023-03-17T00:58:48.860Z,45.28
2023-03-17T00:59:01.142Z,49.78
2023-03-17T00:59:20.592Z,47.15
2023-03-17T00:59:38.596Z,42.53
2023-03-17T01:00:00.442Z,38.40
2023-03-17T01:00:21.067Z,42.20
2023-03-17T01:00:35.155Z,44.38
2023-03-17T01:00:49.037Z,44.40
2023-03-17T01:01:02.927Z,40.85
2023-03-17T01:01:16.901Z,39.30
2023-03-17T01:01:30.116Z,36.58
2023-03-17T01:01:48.370Z,37.35
2023-03-17T01:02:02.690Z,38.95
2023-03-17T01:02:15.981Z,34.25
2023-03-17T01:02:31.932Z,33.35
2023-03-17T01:02:46.780Z,43.90
2023-03-17T01:03:00.177Z,46.35
2023-03-17T01:03:13.108Z,38.70
2023-03-17T01:03:25.823Z,43.00
2023-03-17T01:03:39.017Z,52.55
2023-03-17T01:03:52.260Z,52.40
2023-03-17T01:04:05.379Z,50.65
2023-03-17T01:04:18.556Z,44.45
2023-03-17T01:04:32.779Z,37.20
2023-03-17T01:04:49.921Z,33.75
2023-03-17T01:05:07.059Z,25.63
2023-03-17T01:05:22.135Z,26.27
2023-03-17T01:05:37.382Z,25.55
2023-03-17T01:05:50.950Z,27.00
2023-03-17T01:06:06.657Z,26.88
2023-03-17T01:06:24.713Z,24.55
2023-03-17T01:06:37.717Z,24.33
2023-03-17T01:06:51.991Z,24.67
2023-03-17T01:07:06.724Z,29.67
2023-03-17T01:07:19.725Z,28.10
2023-03-17T01:07:33.212Z,23.13
2023-03-17T01:07:47.861Z,23.77
2023-03-17T01:08:01.633Z,25.00
2023-03-17T01:08:14.583Z,22.17
2023-03-17T01:08:28.566Z,20.33
2023-03-17T01:08:41.013Z,19.55
2023-03-17T01:08:55.781Z,21.50
2023-03-17T01:09:15.350Z,27.33
2023-03-17T01:09:30.013Z,28.70
2023-03-17T01:09:43.462Z,25.08
2023-03-17T01:09:55.917Z,23.17
2023-03-17T01:10:13.976Z,21.08
2023-03-17T01:10:28.774Z,24.08
2023-03-17T01:10:41.235Z,23.83
2023-03-17T01:10:56.857Z,20.80
2023-03-17T01:11:15.601Z,21.55
2023-03-17T01:11:28.049Z,24.50
2023-03-17T01:11:40.916Z,25.65
2023-03-17T01:11:54.016Z,22.67
2023-03-17T01:12:10.709Z,21.20
2023-03-17T01:12:23.912Z,21.15
2023-03-17T01:12:37.248Z,19.63
2023-03-17T01:12:54.273Z,20.13
2023-03-17T01:13:07.134Z,21.75
2023-03-17T01:13:20.106Z,23.98
2023-03-17T01:13:33.426Z,25.52
2023-03-17T01:13:46.282Z,26.92
2023-03-17T01:13:59.373Z,22.50
2023-03-17T01:14:14.443Z,19.95
2023-03-17T01:14:26.818Z,19.52
2023-03-17T01:14:42.179Z,22.38
2023-03-17T01:14:56.847Z,27.98
2023-03-17T01:15:13.746Z,24.70
2023-03-17T01:15:30.013Z,25.88
2023-03-17T01:15:46.291Z,28.52
2023-03-17T01:15:58.918Z,25.23
2023-03-17T01:16:14.625Z,30.02
2023-03-17T01:16:27.256Z,31.88
2023-03-17T01:16:40.209Z,27.80
2023-03-17T01:16:54.295Z,29.40
2023-03-17T01:17:12.127Z,32.33
2023-03-17T01:17:27.293Z,29.77
2023-03-17T01:17:40.591Z,24.40
2023-03-17T01:17:56.128Z,25.02
2023-03-17T01:18:16.049Z,25.42
2023-03-17T01:18:30.417Z,25.10
2023-03-17T01:18:51.518Z,26.60
2023-03-17T01:19:04.399Z,25.77
2023-03-17T01:19:16.922Z,22.30
2023-03-17T01:19:30.682Z,21.60
2023-03-17T01:19:45.709Z,22.65
2023-03-17T01:19:59.195Z,21.85
2023-03-17T01:20:19.100Z,23.63
2023-03-17T01:20:35.117Z,24.88
2023-03-17T01:20:50.650Z,21.88
2023-03-17T01:21:11.073Z,22.02
2023-03-17T01:21:33.806Z,21.55
2023-03-17T01:21:46.016Z,24.58
2023-03-17T01:21:58.065Z,22.25
2023-03-17T01:22:12.090Z,24.23
2023-03-17T01:22:28.972Z,22.35
2023-03-17T01:22:41.790Z,22.42
2023-03-17T01:22:56.178Z,23.60
2023-03-17T01:23:16.721Z,23.45
2023-03-17T01:23:34.485Z,21.15
2023-03-17T01:23:48.318Z,21.65
2023-03-17T01:24:03.989Z,23.02
2023-03-17T01:24:18.928Z,27.92
2023-03-17T01:24:36.598Z,28.25
2023-03-17T01:24:53.854Z,25.00
2023-03-17T01:25:10.183Z,32.40
2023-03-17T01:25:23.869Z,30.23
2023-03-17T01:25:38.393Z,24.40
2023-03-17T01:25:54.808Z,24.25
2023-03-17T01:26:07.761Z,27.08
2023-03-17T01:26:20.964Z,24.55
2023-03-17T01:26:35.785Z,21.30
2023-03-17T01:26:51.283Z,23.23
2023-03-17T01:27:06.510Z,23.67
2023-03-17T01:27:19.297Z,24.08
2023-03-17T01:27:35.670Z,25.73
2023-03-17T01:27:52.062Z,25.67
2023-03-17T01:28:06.223Z,22.63
2023-03-17T01:28:19.812Z,24.67
2023-03-17T01:28:32.154Z,25.17
2023-03-17T01:28:46.551Z,27.45
2023-03-17T01:28:59.791Z,27.10
2023-03-17T01:29:14.591Z,23.73
2023-03-17T01:29:26.979Z,25.17
2023-03-17T01:29:39.615Z,27.75
2023-03-17T01:29:53.693Z,27.27
2023-03-17T01:30:16.944Z,27.67
2023-03-17T01:30:32.311Z,21.02
2023-03-17T01:30:45.867Z,24.20
2023-03-17T01:31:00.807Z,25.80
2023-03-17T01:31:15.976Z,23.17
2023-03-17T01:31:30.572Z,20.42
2023-03-17T01:31:43.850Z,22.95
2023-03-17T01:31:56.924Z,25.23
2023-03-17T01:32:13.643Z,25.67
2023-03-17T01:32:26.800Z,24.27
2023-03-17T01:32:39.678Z,23.02
2023-03-17T01:32:55.084Z,22.02
2023-03-17T01:33:10.869Z,22.60
2023-03-17T01:33:23.864Z,25.13
2023-03-17T01:33:36.458Z,23.38
2023-03-17T01:33:49.671Z,22.65
2023-03-17T01:34:08.850Z,24.65
2023-03-17T01:34:24.930Z,26.02
2023-03-17T01:34:40.542Z,20.83
2023-03-17T01:34:54.074Z,17.45
2023-03-17T01:35:08.949Z,17.67
2023-03-17T01:35:21.760Z,17.33
2023-03-17T01:35:34.476Z,19.48
2023-03-17T01:35:48.444Z,24.42
2023-03-17T01:36:00.982Z,27.27
2023-03-17T01:36:13.568Z,22.48
2023-03-17T01:36:27.455Z,21.38
2023-03-17T01:36:40.994Z,21.80
2023-03-17T01:36:54.410Z,19.55
2023-03-17T01:37:07.374Z,18.27
2023-03-17T01:37:19.830Z,27.17
2023-03-17T01:37:33.152Z,32.30
2023-03-17T01:37:45.782Z,30.33
2023-03-17T01:37:59.057Z,25.75
2023-03-17T01:38:22.787Z,19.80
2023-03-17T01:38:37.669Z,20.80
2023-03-17T01:38:51.487Z,24.98
2023-03-17T01:39:06.075Z,27.05
2023-03-17T01:39:19.994Z,24.50
2023-03-17T01:39:33.803Z,24.20
2023-03-17T01:39:53.980Z,22.38
2023-03-17T01:40:08.645Z,22.55
2023-03-17T01:40:25.961Z,23.17
2023-03-17T01:40:44.690Z,21.27
2023-03-17T01:40:57.203Z,23.17
2023-03-17T01:41:11.827Z,24.63
2023-03-17T01:41:24.980Z,22.40
2023-03-17T01:41:40.244Z,19.58
2023-03-17T01:41:53.695Z,19.63
2023-03-17T01:42:09.067Z,19.83
2023-03-17T01:42:23.242Z,19.33
2023-03-17T01:42:35.808Z,21.23
2023-03-17T01:42:51.679Z,21.42
2023-03-17T01:43:17.626Z,22.88
2023-03-17T01:43:31.749Z,19.42
2023-03-17T01:43:45.065Z,19.45
2023-03-17T01:43:58.788Z,19.13
2023-03-17T01:44:16.435Z,19.45
2023-03-17T01:44:31.546Z,20.45
2023-03-17T01:45:02.989Z,23.08
2023-03-17T01:45:52.093Z,23.20
2023-03-17T01:46:35.438Z,25.65
2023-03-17T01:46:48.069Z,18.92
2023-03-17T01:47:03.077Z,18.02
2023-03-17T01:47:17.420Z,18.13
2023-03-17T01:47:32.738Z,22.10
2023-03-17T01:47:46.882Z,26.25
2023-03-17T01:48:00.285Z,27.08
2023-03-17T01:48:14.152Z,26.80
2023-03-17T01:48:28.847Z,22.83
2023-03-17T01:48:45.680Z,23.38
2023-03-17T01:49:06.870Z,26.50
2023-03-17T01:49:24.899Z,19.48
2023-03-17T01:49:39.112Z,18.08
2023-03-17T01:49:54.974Z,18.70
2023-03-17T01:50:12.325Z,18.05
2023-03-17T01:50:28.020Z,23.15
2023-03-17T01:50:41.976Z,21.38
2023-03-17T01:50:58.584Z,19.55
2023-03-17T01:51:18.434Z,21.95
2023-03-17T01:51:36.970Z,21.88
2023-03-17T01:51:57.196Z,20.50
2023-03-17T01:52:18.570Z,22.20
2023-03-17T01:52:31.703Z,22.95
2023-03-17T01:52:43.995Z,24.50
2023-03-17T01:52:59.431Z,24.90
2023-03-17T01:53:18.181Z,25.15
2023-03-17T01:53:37.923Z,20.02
2023-03-17T01:53:52.973Z,22.65
2023-03-17T01:54:09.306Z,21.65
2023-03-17T01:54:29.015Z,19.27
2023-03-17T01:54:45.030Z,24.63
2023-03-17T01:55:05.583Z,23.58
2023-03-17T01:55:21.965Z,20.42
2023-03-17T01:55:36.878Z,19.40
2023-03-17T01:55:51.684Z,19.52
2023-03-17T01:56:04.702Z,19.08
2023-03-17T01:56:21.848Z,23.60
2023-03-17T01:56:36.134Z,23.88
2023-03-17T01:56:51.216Z,18.83
2023-03-17T01:57:12.961Z,19.20
2023-03-17T01:57:31.138Z,22.35
2023-03-17T01:57:47.868Z,22.95
2023-03-17T01:58:00.834Z,19.75
2023-03-17T01:58:16.760Z,19.63
2023-03-17T01:58:29.027Z,18.65
2023-03-17T01:58:48.835Z,18.73
2023-03-17T01:59:06.655Z,21.35
2023-03-17T01:59:25.122Z,20.35
2023-03-17T01:59:47.336Z,18.98
2023-03-17T02:00:03.119Z,17.70
2023-03-17T02:00:29.318Z,19.35
2023-03-17T02:00:42.040Z,20.60
2023-03-17T02:00:55.158Z,21.80
2023-03-17T02:01:07.969Z,23.83
2023-03-17T02:01:26.690Z,25.90
2023-03-17T02:01:47.877Z,23.00
2023-03-17T02:02:07.143Z,20.55
2023-03-17T02:02:24.537Z,18.38
2023-03-17T02:02:43.161Z,20.98
2023-03-17T02:02:58.935Z,20.10
2023-03-17T02:03:11.795Z,22.30
2023-03-17T02:03:24.677Z,26.20
2023-03-17T02:03:39.551Z,28.40
2023-03-17T02:03:53.188Z,27.90
2023-03-17T02:04:11.042Z,28.67
2023-03-17T02:04:25.726Z,20.08
2023-03-17T02:04:39.994Z,21.10
2023-03-17T02:04:52.872Z,20.95
2023-03-17T02:05:14.571Z,21.63
2023-03-17T02:05:31.133Z,24.27
2023-03-17T02:05:45.590Z,22.83
2023-03-17T02:05:58.852Z,18.63
2023-03-17T02:06:13.224Z,21.83
2023-03-17T02:06:26.500Z,24.55
2023-03-17T02:06:56.700Z,21.25
2023-03-17T02:07:12.284Z,19.40
2023-03-17T02:07:32.115Z,19.95
2023-03-17T02:07:45.000Z,21.27
2023-03-17T02:07:58.623Z,23.85
2023-03-17T02:08:16.494Z,26.17
2023-03-17T02:08:30.112Z,23.48
2023-03-17T02:08:47.334Z,22.70
2023-03-17T02:09:01.978Z,21.08
2023-03-17T02:09:17.248Z,24.35
2023-03-17T02:09:29.997Z,26.60
2023-03-17T02:09:42.110Z,20.67
2023-03-17T02:09:57.468Z,21.92
2023-03-17T02:10:10.851Z,31.05
2023-03-17T02:10:27.638Z,37.10
2023-03-17T02:10:41.144Z,25.30
2023-03-17T02:10:56.044Z,19.17
2023-03-17T02:11:09.222Z,20.08
2023-03-17T02:11:21.909Z,24.75
2023-03-17T02:11:37.344Z,30.80
2023-03-17T02:11:51.648Z,29.00
2023-03-17T02:12:06.755Z,20.55
2023-03-17T02:12:22.318Z,19.02
2023-03-17T02:12:36.474Z,19.02
2023-03-17T02:12:53.821Z,21.05
2023-03-17T02:13:07.646Z,22.40
2023-03-17T02:13:22.107Z,19.95
2023-03-17T02:13:39.578Z,19.83
2023-03-17T02:13:53.040Z,24.10
2023-03-17T02:14:09.953Z,24.23
2023-03-17T02:14:23.422Z,19.65
2023-03-17T02:14:36.021Z,17.70
2023-03-17T02:14:56.771Z,19.08
2023-03-17T02:15:12.284Z,25.33
2023-03-17T02:15:25.192Z,24.60
2023-03-17T02:15:39.471Z,29.52
2023-03-17T02:15:53.853Z,28.55
2023-03-17T02:16:10.026Z,25.48
2023-03-17T02:16:23.812Z,26.33
2023-03-17T02:16:40.129Z,24.42
2023-03-17T02:16:53.474Z,20.10
2023-03-17T02:17:07.045Z,20.50
2023-03-17T02:17:21.220Z,23.00
2023-03-17T02:17:33.774Z,23.58
2023-03-17T02:17:51.997Z,24.38
2023-03-17T02:18:05.811Z,26.00
2023-03-17T02:18:24.694Z,24.92
2023-03-17T02:18:37.955Z,25.45
2023-03-17T02:18:52.692Z,24.95
2023-03-17T02:19:06.064Z,26.73
2023-03-17T02:19:18.882Z,27.50
2023-03-17T02:19:31.709Z,24.23
2023-03-17T02:19:44.062Z,24.02
2023-03-17T02:19:56.761Z,22.95
2023-03-17T02:20:45.278Z,22.88
2023-03-17T02:21:28.943Z,28.83
2023-03-17T02:21:45.086Z,24.63
2023-03-17T02:22:00.405Z,25.30
2023-03-17T02:22:14.499Z,24.33
2023-03-17T02:22:31.494Z,23.45
2023-03-17T02:22:44.953Z,27.45
2023-03-17T02:23:01.069Z,30.58
2023-03-17T02:23:16.981Z,27.25
2023-03-17T02:23:31.166Z,23.85
2023-03-17T02:23:44.060Z,24.42
2023-03-17T02:23:57.098Z,23.55
2023-03-17T02:24:16.232Z,23.45
2023-03-17T02:24:33.249Z,22.00
2023-03-17T02:24:50.850Z,23.23
2023-03-17T02:25:04.639Z,23.75
2023-03-17T02:25:20.898Z,23.85
2023-03-17T02:25:36.281Z,22.70
2023-03-17T02:25:52.389Z,22.67
2023-03-17T02:26:11.721Z,23.67
2023-03-17T02:26:25.874Z,22.17
2023-03-17T02:26:38.691Z,25.15
2023-03-17T02:26:55.162Z,26.30
2023-03-17T02:27:12.801Z,23.77
2023-03-17T02:27:30.510Z,22.40
2023-03-17T02:27:45.318Z,29.50
2023-03-17T02:28:01.725Z,31.98
2023-03-17T02:28:23.038Z,27.23
2023-03-17T02:28:36.197Z,23.77
2023-03-17T02:28:52.856Z,21.77
2023-03-17T02:29:08.486Z,22.73
2023-03-17T02:29:24.064Z,23.73
2023-03-17T02:29:37.842Z,24.95
2023-03-17T02:29:51.835Z,26.92
2023-03-17T02:30:08.981Z,26.92
2023-03-17T02:30:25.028Z,24.45
2023-03-17T02:30:39.510Z,23.42
2023-03-17T02:30:52.561Z,21.65
2023-03-17T02:31:05.576Z,22.63
2023-03-17T02:31:19.888Z,23.45
2023-03-17T02:31:32.031Z,21.30
2023-03-17T02:31:44.848Z,24.83
2023-03-17T02:31:57.432Z,27.92
2023-03-17T02:32:12.130Z,29.55
2023-03-17T02:32:24.692Z,24.48
2023-03-17T02:32:38.055Z,20.50
2023-03-17T02:32:52.154Z,20.75
2023-03-17T02:33:09.262Z,28.35
2023-03-17T02:33:24.002Z,29.13
2023-03-17T02:33:43.905Z,22.08
2023-03-17T02:33:58.048Z,24.88
2023-03-17T02:34:11.134Z,28.23
2023-03-17T02:34:23.513Z,27.85
2023-03-17T02:34:37.132Z,25.83
2023-03-17T02:34:50.804Z,23.80
2023-03-17T02:35:04.003Z,25.74
2023-03-17T02:35:22.680Z,27.40
2023-03-17T02:35:35.084Z,26.30
2023-03-17T02:35:47.875Z,26.35
2023-03-17T02:36:01.786Z,31.85
2023-03-17T02:36:17.634Z,31.05
2023-03-17T02:36:38.556Z,27.75
2023-03-17T02:36:50.836Z,26.10
2023-03-17T02:37:03.748Z,28.15
2023-03-17T02:37:17.338Z,25.80
2023-03-17T02:37:47.832Z,26.70
2023-03-17T02:38:01.853Z,26.35
2023-03-17T02:38:15.872Z,26.17
2023-03-17T02:38:28.210Z,28.60
2023-03-17T02:38:40.726Z,32.83
2023-03-17T02:38:53.283Z,35.63
2023-03-17T02:39:06.858Z,34.25
2023-03-17T02:39:19.639Z,27.42
2023-03-17T02:39:35.501Z,25.95
2023-03-17T02:39:51.579Z,27.17
2023-03-17T02:40:07.052Z,30.27
2023-03-17T02:40:26.355Z,33.28
2023-03-17T02:40:45.491Z,34.33
2023-03-17T02:40:58.053Z,34.67
2023-03-17T02:41:16.549Z,35.20
2023-03-17T02:41:31.773Z,33.47
2023-03-17T02:41:46.000Z,33.10
2023-03-17T02:41:59.123Z,31.38
2023-03-17T02:42:12.702Z,31.02
2023-03-17T02:42:25.385Z,35.05
2023-03-17T02:42:40.635Z,32.90
2023-03-17T02:42:56.840Z,25.55
2023-03-17T02:43:14.816Z,26.02
2023-03-17T02:43:29.021Z,30.35
2023-03-17T02:43:42.358Z,34.30
2023-03-17T02:43:55.740Z,31.92
2023-03-17T02:44:13.191Z,30.67
2023-03-17T02:44:26.110Z,30.10
2023-03-17T02:44:39.625Z,27.23
2023-03-17T02:44:55.866Z,29.15
2023-03-17T02:45:11.405Z,35.15
2023-03-17T02:45:28.324Z,34.97
2023-03-17T02:45:48.064Z,29.10
2023-03-17T02:46:02.614Z,29.50
2023-03-17T02:46:18.703Z,30.05
2023-03-17T02:46:34.934Z,32.38
2023-03-17T02:46:47.745Z,31.98
2023-03-17T02:47:00.923Z,33.22
2023-03-17T02:47:17.923Z,31.42
2023-03-17T02:47:35.460Z,31.02
2023-03-17T02:47:50.019Z,31.17
2023-03-17T02:48:04.238Z,33.50
2023-03-17T02:48:19.144Z,33.25
2023-03-17T02:48:35.944Z,28.42
2023-03-17T02:48:52.252Z,28.67
2023-03-17T02:49:09.096Z,30.35
2023-03-17T02:49:31.229Z,32.97
2023-03-17T02:49:47.908Z,33.95
2023-03-17T02:50:00.703Z,33.78
2023-03-17T02:50:19.087Z,35.60
2023-03-17T02:50:31.963Z,37.22
2023-03-17T02:50:50.362Z,33.65
2023-03-17T02:51:05.996Z,36.55
2023-03-17T02:51:19.730Z,35.22
2023-03-17T02:51:34.151Z,32.50
2023-03-17T02:51:46.724Z,34.35
2023-03-17T02:52:00.399Z,34.63
2023-03-17T02:52:12.748Z,30.60
2023-03-17T02:52:25.818Z,32.33
2023-03-17T02:52:39.073Z,34.65
2023-03-17T02:52:51.904Z,33.35
2023-03-17T02:53:04.440Z,33.53
2023-03-17T02:53:18.272Z,30.67
2023-03-17T02:53:30.686Z,26.83
2023-03-17T02:53:43.863Z,29.58
2023-03-17T02:53:59.451Z,30.75
2023-03-17T02:54:12.256Z,33.40
2023-03-17T02:54:24.301Z,34.72
2023-03-17T02:54:40.685Z,36.90
2023-03-17T02:54:54.945Z,35.63
2023-03-17T02:55:08.965Z,30.55
2023-03-17T02:55:23.482Z,28.20
2023-03-17T02:55:39.355Z,31.46
2023-03-17T02:55:56.777Z,31.23
2023-03-17T02:56:17.264Z,36.70
2023-03-17T02:56:30.202Z,38.13
2023-03-17T02:56:43.814Z,40.33
2023-03-17T02:56:56.886Z,36.08
2023-03-17T02:57:14.210Z,35.80
2023-03-17T02:57:34.169Z,36.15
2023-03-17T02:57:47.171Z,33.22
2023-03-17T02:58:00.360Z,32.63
2023-03-17T02:58:12.522Z,32.47
2023-03-17T02:58:24.671Z,35.72
2023-03-17T02:58:38.037Z,36.42
2023-03-17T02:58:50.867Z,34.25
2023-03-17T02:59:04.753Z,37.13
2023-03-17T02:59:21.482Z,36.60
2023-03-17T02:59:33.859Z,33.45
2023-03-17T02:59:47.285Z,36.30
2023-03-17T02:59:59.767Z,33.28
2023-03-17T03:00:14.060Z,29.15
2023-03-17T03:00:29.963Z,29.83
2023-03-17T03:00:44.689Z,27.15
2023-03-17T03:01:00.785Z,27.98
2023-03-17T03:01:13.706Z,36.72
2023-03-17T03:01:26.640Z,39.40
2023-03-17T03:01:39.431Z,41.00
2023-03-17T03:01:53.109Z,36.20
2023-03-17T03:02:08.109Z,35.58
2023-03-17T03:02:27.759Z,37.78
2023-03-17T03:02:42.833Z,39.60
2023-03-17T03:02:57.231Z,35.28
2023-03-17T03:03:11.783Z,29.73
2023-03-17T03:03:24.192Z,29.13
2023-03-17T03:03:36.788Z,29.50
2023-03-17T03:03:49.037Z,30.95
2023-03-17T03:04:04.656Z,39.42
2023-03-17T03:04:16.721Z,40.95
2023-03-17T03:04:32.935Z,39.05
2023-03-17T03:04:45.926Z,36.50
2023-03-17T03:04:59.782Z,33.97
2023-03-17T03:05:14.182Z,36.20
2023-03-17T03:05:26.543Z,35.10
2023-03-17T03:05:40.492Z,35.55
2023-03-17T03:05:54.756Z,33.22
2023-03-17T03:06:08.495Z,32.42
2023-03-17T03:06:20.754Z,34.40
2023-03-17T03:06:40.561Z,32.58
2023-03-17T03:06:59.581Z,33.55
2023-03-17T03:07:16.216Z,32.15
2023-03-17T03:07:29.253Z,30.33
2023-03-17T03:07:44.609Z,29.70
2023-03-17T03:07:57.399Z,30.88
2023-03-17T03:08:09.703Z,31.23
2023-03-17T03:08:21.837Z,30.63
2023-03-17T03:08:37.757Z,32.15
2023-03-17T03:08:50.900Z,34.00
2023-03-17T03:09:10.497Z,35.33
2023-03-17T03:09:24.438Z,38.95
2023-03-17T03:09:45.657Z,37.55
2023-03-17T03:09:59.497Z,34.38
2023-03-17T03:10:13.936Z,31.52
2023-03-17T03:10:26.634Z,32.88
2023-03-17T03:10:38.890Z,37.63
2023-03-17T03:10:53.873Z,36.25
2023-03-17T03:11:11.499Z,30.05
2023-03-17T03:11:24.185Z,33.45
2023-03-17T03:11:37.406Z,33.90
2023-03-17T03:11:50.911Z,33.42
2023-03-17T03:12:03.528Z,35.03
2023-03-17T03:12:16.829Z,31.80
2023-03-17T03:12:36.538Z,32.67
2023-03-17T03:12:49.106Z,32.88
2023-03-17T03:13:03.139Z,32.42
2023-03-17T03:13:16.067Z,33.00
2023-03-17T03:13:31.547Z,34.72
2023-03-17T03:13:45.990Z,31.77
2023-03-17T03:14:00.133Z,29.55
2023-03-17T03:14:14.910Z,35.67
2023-03-17T03:14:27.894Z,34.30
2023-03-17T03:14:44.622Z,28.40
2023-03-17T03:14:57.627Z,27.52
2023-03-17T03:15:10.951Z,30.33
2023-03-17T03:15:26.020Z,31.67
2023-03-17T03:15:51.038Z,33.80
2023-03-17T03:16:05.448Z,30.08
2023-03-17T03:16:18.271Z,28.45
2023-03-17T03:16:32.416Z,34.85
2023-03-17T03:16:45.128Z,35.28
2023-03-17T03:16:57.114Z,37.88
2023-03-17T03:17:12.003Z,37.60
2023-03-17T03:17:25.832Z,37.30
2023-03-17T03:17:38.145Z,38.88
2023-03-17T03:17:51.932Z,36.92
2023-03-17T03:18:04.056Z,31.84
2023-03-17T03:18:19.079Z,34.80
2023-03-17T03:18:31.779Z,33.72
2023-03-17T03:18:45.003Z,32.58
2023-03-17T03:19:02.194Z,30.25